Time;durP1;ratioP1;P1;durP2;ratioP2;P2;SDS_P1;SDS_P2;PMS_P1;PMS_P2;Temp;Humidity;BMP_temperature;BMP_pressure;BME280_temperature;BME280_humidity;BME280_pressure;Samples;Min_cycle;Max_cycle;Signal;HPM_P1;HPM_P2
2021/11/06 00:00:22;;;;;;;5.20;2.22;;;;;;;;;;5116023;28;20028;-66
2021/11/06 00:02:48;;;;;;;7.72;2.08;;;;;;;;;;5106497;28;20046;-66
2021/11/06 00:05:14;;;;;;;8.48;2.78;;;;;;;;;;5110452;28;20069;-66
2021/11/06 00:07:40;;;;;;;10.23;2.30;;;;;;;;;;5122055;28;20032;-66
2021/11/06 00:10:08;;;;;;;10.85;2.67;;;;;;;;;;5116890;28;20044;-65
2021/11/06 00:12:34;;;;;;;14.20;2.22;;;;;;;;;;5107402;28;20036;-65
2021/11/06 00:15:00;;;;;;;8.43;2.10;;;;;;;;;;5119215;28;20074;-65
2021/11/06 00:17:26;;;;;;;12.32;2.00;;;;;;;;;;5120922;28;20044;-65
2021/11/06 00:19:52;;;;;;;4.75;1.95;;;;;;;;;;5113424;28;20039;-65
2021/11/06 00:22:18;;;;;;;7.43;2.28;;;;;;;;;;5120389;28;20043;-66
2021/11/06 00:24:44;;;;;;;8.25;1.77;;;;;;;;;;5101464;28;20472;-65
2021/11/06 00:27:11;;;;;;;6.90;2.13;;;;;;;;;;5119458;28;20047;-65
2021/11/06 00:29:37;;;;;;;8.48;2.08;;;;;;;;;;5118870;28;20100;-66
2021/11/06 00:32:03;;;;;;;9.68;2.17;;;;;;;;;;5119694;28;20051;-66
2021/11/06 00:34:29;;;;;;;9.93;2.28;;;;;;;;;;5116563;28;20039;-65
2021/11/06 00:36:55;;;;;;;12.18;2.25;;;;;;;;;;5122234;28;20112;-65
2021/11/06 00:39:21;;;;;;;14.63;2.00;;;;;;;;;;5101486;28;20040;-65
2021/11/06 00:41:47;;;;;;;6.90;2.30;;;;;;;;;;5100511;28;20499;-65
2021/11/06 00:44:13;;;;;;;6.07;2.10;;;;;;;;;;5092787;28;20044;-66
2021/11/06 00:46:39;;;;;;;10.20;1.98;;;;;;;;;;5118838;28;20047;-65
2021/11/06 00:49:05;;;;;;;9.95;2.30;;;;;;;;;;5101663;28;20111;-65
2021/11/06 00:51:31;;;;;;;6.40;2.35;;;;;;;;;;5114152;28;20048;-65
2021/11/06 00:53:57;;;;;;;7.32;1.77;;;;;;;;;;5120792;28;20042;-65
2021/11/06 00:56:23;;;;;;;6.07;2.03;;;;;;;;;;5114679;28;20055;-65
2021/11/06 00:58:50;;;;;;;3.85;1.90;;;;;;;;;;5102304;28;20067;-65
2021/11/06 01:01:16;;;;;;;7.25;2.63;;;;;;;;;;5093318;28;20048;-65
2021/11/06 01:03:42;;;;;;;4.57;1.80;;;;;;;;;;5118453;28;20036;-65
2021/11/06 01:06:08;;;;;;;8.55;2.50;;;;;;;;;;5113336;28;20036;-66
2021/11/06 01:08:34;;;;;;;8.30;2.15;;;;;;;;;;5109508;28;20036;-65
2021/11/06 01:11:00;;;;;;;6.32;2.58;;;;;;;;;;5095097;28;20540;-65
2021/11/06 01:13:27;;;;;;;11.02;2.85;;;;;;;;;;5120217;28;20050;-65
2021/11/06 01:15:53;;;;;;;6.50;2.25;;;;;;;;;;5120301;28;20048;-65
2021/11/06 01:18:19;;;;;;;5.13;2.13;;;;;;;;;;5112878;28;20040;-65
2021/11/06 01:20:45;;;;;;;9.02;2.85;;;;;;;;;;5115059;28;20338;-65
2021/11/06 01:23:11;;;;;;;10.77;2.50;;;;;;;;;;5095251;28;20109;-66
2021/11/06 01:25:38;;;;;;;9.63;2.78;;;;;;;;;;5114035;28;20044;-65
2021/11/06 01:28:04;;;;;;;6.32;2.17;;;;;;;;;;5105675;28;20042;-66
2021/11/06 01:30:30;;;;;;;6.43;2.40;;;;;;;;;;5119402;28;20047;-66
2021/11/06 01:32:56;;;;;;;15.52;3.10;;;;;;;;;;5112594;28;20046;-66
2021/11/06 01:35:22;;;;;;;6.05;2.30;;;;;;;;;;5122207;28;20104;-66
2021/11/06 01:37:49;;;;;;;9.88;2.72;;;;;;;;;;5118945;28;20039;-66
2021/11/06 01:40:17;;;;;;;10.35;2.42;;;;;;;;;;5119969;28;20414;-66
2021/11/06 01:42:43;;;;;;;5.35;3.00;;;;;;;;;;5123123;28;20179;-65
2021/11/06 01:45:10;;;;;;;11.18;3.30;;;;;;;;;;5122752;28;20054;-65
2021/11/06 01:47:36;;;;;;;9.37;3.53;;;;;;;;;;5110865;28;20054;-66
2021/11/06 01:50:03;;;;;;;6.40;2.83;;;;;;;;;;5095862;28;20043;-66
2021/11/06 01:52:29;;;;;;;13.35;4.07;;;;;;;;;;5126818;28;20054;-66
2021/11/06 01:54:55;;;;;;;11.50;3.63;;;;;;;;;;5113379;28;20047;-66
2021/11/06 01:57:22;;;;;;;17.80;4.95;;;;;;;;;;5100520;28;20077;-66
2021/11/06 01:59:48;;;;;;;10.80;4.70;;;;;;;;;;5116031;28;20044;-65
2021/11/06 02:02:15;;;;;;;12.55;5.00;;;;;;;;;;5124182;28;20043;-65
2021/11/06 02:04:42;;;;;;;11.52;4.85;;;;;;;;;;5116311;28;20040;-65
2021/11/06 02:07:08;;;;;;;10.75;5.32;;;;;;;;;;5096151;28;20046;-65
2021/11/06 02:09:34;;;;;;;11.52;4.75;;;;;;;;;;5122050;28;20042;-65
2021/11/06 02:12:00;;;;;;;11.85;5.95;;;;;;;;;;5119711;28;20512;-64
2021/11/06 02:14:26;;;;;;;11.00;5.15;;;;;;;;;;5123917;28;20517;-65
2021/11/06 02:16:52;;;;;;;11.80;5.82;;;;;;;;;;5109619;28;20116;-65
2021/11/06 02:19:25;;;;;;;13.13;6.50;;;;;;;;;;5125239;28;20036;-65
2021/11/06 02:21:52;;;;;;;12.05;5.45;;;;;;;;;;5089033;28;20058;-65
2021/11/06 02:24:18;;;;;;;12.40;5.43;;;;;;;;;;5124479;28;20043;-65
2021/11/06 02:26:45;;;;;;;15.93;6.30;;;;;;;;;;5097716;28;20057;-64
2021/11/06 02:29:12;;;;;;;12.10;6.10;;;;;;;;;;5118978;28;20426;-64
2021/11/06 02:31:38;;;;;;;13.80;6.53;;;;;;;;;;5126783;28;20051;-64
2021/11/06 02:34:04;;;;;;;23.52;7.55;;;;;;;;;;5104288;28;20047;-64
2021/11/06 02:36:30;;;;;;;16.70;6.30;;;;;;;;;;5115798;28;20044;-64
2021/11/06 02:38:57;;;;;;;10.30;6.55;;;;;;;;;;5123086;28;20036;-64
2021/11/06 02:41:23;;;;;;;18.63;6.13;;;;;;;;;;5114951;28;20096;-64
2021/11/06 02:43:49;;;;;;;16.00;6.80;;;;;;;;;;5107208;28;20093;-64
2021/11/06 02:46:16;;;;;;;13.02;6.47;;;;;;;;;;5115780;28;20036;-64
2021/11/06 02:48:42;;;;;;;15.57;7.35;;;;;;;;;;5122131;28;20046;-64
2021/11/06 02:51:08;;;;;;;15.63;8.07;;;;;;;;;;5126371;28;20043;-64
2021/11/06 02:53:34;;;;;;;18.40;7.97;;;;;;;;;;5113834;28;20044;-64
2021/11/06 02:56:00;;;;;;;12.48;6.60;;;;;;;;;;5112608;28;20043;-65
2021/11/06 02:58:29;;;;;;;13.38;7.13;;;;;;;;;;5113386;28;20100;-64
2021/11/06 03:00:56;;;;;;;15.70;7.97;;;;;;;;;;5124955;28;20071;-64
2021/11/06 03:03:22;;;;;;;21.25;8.60;;;;;;;;;;5117174;28;20539;-65
2021/11/06 03:05:48;;;;;;;13.60;7.40;;;;;;;;;;5093580;28;20047;-64
2021/11/06 03:08:14;;;;;;;14.05;7.35;;;;;;;;;;5092552;28;20123;-64
2021/11/06 03:10:40;;;;;;;18.85;7.70;;;;;;;;;;5103306;28;20040;-63
2021/11/06 03:13:06;;;;;;;13.70;7.82;;;;;;;;;;5120395;28;20040;-64
2021/11/06 03:15:32;;;;;;;18.98;8.18;;;;;;;;;;5120134;28;20044;-65
2021/11/06 03:17:58;;;;;;;16.55;8.00;;;;;;;;;;5122720;28;20040;-65
2021/11/06 03:20:25;;;;;;;15.98;7.18;;;;;;;;;;5117628;28;20052;-65
2021/11/06 03:22:57;;;;;;;16.30;7.90;;;;;;;;;;5123730;28;20403;-65
2021/11/06 03:25:23;;;;;;;15.60;8.18;;;;;;;;;;5116876;28;20134;-65
2021/11/06 03:27:49;;;;;;;18.35;8.18;;;;;;;;;;5124310;28;20118;-65
2021/11/06 03:30:15;;;;;;;15.57;8.57;;;;;;;;;;5114330;28;20039;-64
2021/11/06 03:32:42;;;;;;;22.85;8.70;;;;;;;;;;5125754;28;20507;-63
2021/11/06 03:35:08;;;;;;;23.15;8.80;;;;;;;;;;5114453;28;20046;-64
2021/11/06 03:37:35;;;;;;;19.80;9.43;;;;;;;;;;5103012;28;20040;-64
2021/11/06 03:40:01;;;;;;;16.77;9.13;;;;;;;;;;5113996;28;20507;-64
2021/11/06 03:42:27;;;;;;;16.60;8.45;;;;;;;;;;5121903;28;20078;-64
2021/11/06 03:44:54;;;;;;;30.15;9.75;;;;;;;;;;5118830;28;20039;-65
2021/11/06 03:47:21;;;;;;;20.10;9.13;;;;;;;;;;5118335;28;20047;-65
2021/11/06 03:49:47;;;;;;;22.00;9.55;;;;;;;;;;5101440;28;20036;-65
2021/11/06 03:52:13;;;;;;;21.33;9.82;;;;;;;;;;5094652;28;20107;-65
2021/11/06 03:54:41;;;;;;;16.48;10.05;;;;;;;;;;5114598;28;20067;-65
2021/11/06 03:57:07;;;;;;;20.23;9.52;;;;;;;;;;5113982;28;20047;-65
2021/11/06 03:59:34;;;;;;;20.23;9.05;;;;;;;;;;5114273;28;20039;-65
2021/11/06 04:02:00;;;;;;;16.40;9.30;;;;;;;;;;5114066;28;20036;-65
2021/11/06 04:04:26;;;;;;;20.60;9.85;;;;;;;;;;5114802;28;20044;-65
2021/11/06 04:06:52;;;;;;;20.08;9.32;;;;;;;;;;5119884;28;20119;-65
2021/11/06 04:09:18;;;;;;;24.38;9.98;;;;;;;;;;5097847;28;20087;-65
2021/11/06 04:11:44;;;;;;;30.75;11.30;;;;;;;;;;5109128;28;20032;-64
2021/11/06 04:14:11;;;;;;;19.38;10.48;;;;;;;;;;5118529;28;20062;-63
2021/11/06 04:16:37;;;;;;;18.33;10.48;;;;;;;;;;5116075;28;20063;-64
2021/11/06 04:19:03;;;;;;;19.48;11.25;;;;;;;;;;5120006;28;20118;-64
2021/11/06 04:21:29;;;;;;;22.50;10.52;;;;;;;;;;5115918;28;20050;-64
2021/11/06 04:23:56;;;;;;;23.75;11.50;;;;;;;;;;5087816;28;20046;-64
2021/11/06 04:26:22;;;;;;;26.60;11.07;;;;;;;;;;5112941;28;20055;-65
2021/11/06 04:28:48;;;;;;;23.25;10.43;;;;;;;;;;5119730;28;20043;-65
2021/11/06 04:31:14;;;;;;;22.35;10.70;;;;;;;;;;5096593;28;20047;-65
2021/11/06 04:33:40;;;;;;;24.95;11.25;;;;;;;;;;5101576;28;20039;-65
2021/11/06 04:36:09;;;;;;;24.15;11.60;;;;;;;;;;5112439;28;20074;-65
2021/11/06 04:38:35;;;;;;;29.00;12.55;;;;;;;;;;5118228;28;20040;-65
2021/11/06 04:41:01;;;;;;;22.75;12.10;;;;;;;;;;5096460;28;20060;-65
2021/11/06 04:43:28;;;;;;;26.17;12.18;;;;;;;;;;5119389;28;20050;-65
2021/11/06 04:45:54;;;;;;;21.35;11.48;;;;;;;;;;5093264;28;20043;-65
2021/11/06 04:48:20;;;;;;;24.08;11.95;;;;;;;;;;5114917;28;20036;-64
2021/11/06 04:50:46;;;;;;;21.63;12.32;;;;;;;;;;5111730;28;20046;-65
2021/11/06 04:53:12;;;;;;;29.20;13.07;;;;;;;;;;5118377;28;20043;-64
2021/11/06 04:55:38;;;;;;;33.60;14.02;;;;;;;;;;5110155;28;20126;-65
2021/11/06 04:58:04;;;;;;;27.30;11.93;;;;;;;;;;5099386;28;20043;-65
2021/11/06 05:00:30;;;;;;;25.67;13.73;;;;;;;;;;5117656;28;20069;-64
2021/11/06 05:02:57;;;;;;;22.70;13.30;;;;;;;;;;5117124;28;20055;-65
2021/11/06 05:05:23;;;;;;;34.13;15.75;;;;;;;;;;5123714;28;20044;-65
2021/11/06 05:07:49;;;;;;;27.77;14.38;;;;;;;;;;5116379;28;20102;-63
2021/11/06 05:10:15;;;;;;;23.92;13.75;;;;;;;;;;5107563;28;20066;-63
2021/11/06 05:12:41;;;;;;;29.20;15.00;;;;;;;;;;5121267;28;20035;-64
2021/11/06 05:15:08;;;;;;;30.60;14.80;;;;;;;;;;5121005;28;20103;-63
2021/11/06 05:17:34;;;;;;;32.90;15.50;;;;;;;;;;5123033;28;20099;-64
2021/11/06 05:20:00;;;;;;;29.50;16.20;;;;;;;;;;5124374;28;20039;-64
2021/11/06 05:22:26;;;;;;;32.10;18.67;;;;;;;;;;5123489;28;20123;-63
2021/11/06 05:24:53;;;;;;;29.85;18.30;;;;;;;;;;5122218;28;20497;-63
2021/11/06 05:27:19;;;;;;;29.60;17.95;;;;;;;;;;5125907;28;20238;-63
2021/11/06 05:29:45;;;;;;;29.30;17.50;;;;;;;;;;5102178;28;20419;-64
2021/11/06 05:32:12;;;;;;;29.63;17.52;;;;;;;;;;5113042;28;20048;-64
2021/11/06 05:34:38;;;;;;;31.00;17.85;;;;;;;;;;5119971;28;20044;-64
2021/11/06 05:37:04;;;;;;;43.95;21.45;;;;;;;;;;5093974;28;20088;-64
2021/11/06 05:39:30;;;;;;;32.78;18.35;;;;;;;;;;5117617;28;20079;-64
2021/11/06 05:41:56;;;;;;;42.33;20.67;;;;;;;;;;5125607;28;20480;-64
2021/11/06 05:44:22;;;;;;;34.92;19.23;;;;;;;;;;5118689;28;20048;-64
2021/11/06 05:46:48;;;;;;;34.55;19.73;;;;;;;;;;5125930;28;20410;-64
2021/11/06 05:49:14;;;;;;;33.65;19.52;;;;;;;;;;5118482;28;20044;-64
2021/11/06 05:51:41;;;;;;;38.65;19.67;;;;;;;;;;5124918;28;20096;-65
2021/11/06 05:54:07;;;;;;;31.70;20.25;;;;;;;;;;5115582;28;20047;-64
2021/11/06 05:56:34;;;;;;;41.40;20.45;;;;;;;;;;5125087;28;20048;-64
2021/11/06 05:59:00;;;;;;;30.83;20.35;;;;;;;;;;5114789;28;20130;-64
2021/11/06 06:01:26;;;;;;;38.15;21.58;;;;;;;;;;5118953;28;20044;-64
2021/11/06 06:03:53;;;;;;;38.55;21.67;;;;;;;;;;5117371;28;20515;-64
2021/11/06 06:06:19;;;;;;;40.40;21.95;;;;;;;;;;5120268;28;20032;-64
2021/11/06 06:08:45;;;;;;;39.95;22.25;;;;;;;;;;5118728;28;20047;-64
2021/11/06 06:11:11;;;;;;;37.88;22.83;;;;;;;;;;5114888;28;20054;-64
2021/11/06 06:13:38;;;;;;;32.33;21.23;;;;;;;;;;5120426;28;20150;-64
2021/11/06 06:16:05;;;;;;;33.97;20.13;;;;;;;;;;5117540;28;20044;-64
2021/11/06 06:18:31;;;;;;;39.00;21.85;;;;;;;;;;5121512;28;20040;-64
2021/11/06 06:20:57;;;;;;;35.97;21.45;;;;;;;;;;5113457;28;20078;-64
2021/11/06 06:23:23;;;;;;;34.00;21.48;;;;;;;;;;5101944;28;20197;-64
2021/11/06 06:25:49;;;;;;;38.58;22.83;;;;;;;;;;5101375;28;20338;-65
2021/11/06 06:28:15;;;;;;;33.40;21.67;;;;;;;;;;5120563;28;20126;-64
2021/11/06 06:30:42;;;;;;;30.63;19.40;;;;;;;;;;5108930;28;20036;-64
2021/11/06 06:33:08;;;;;;;44.38;24.73;;;;;;;;;;5120234;28;20103;-64
2021/11/06 06:35:34;;;;;;;33.50;21.00;;;;;;;;;;5106164;28;20116;-64
2021/11/06 06:38:01;;;;;;;31.85;21.55;;;;;;;;;;5122187;28;20122;-64
2021/11/06 06:40:27;;;;;;;41.10;22.38;;;;;;;;;;5125198;28;20495;-64
2021/11/06 06:42:53;;;;;;;32.45;21.50;;;;;;;;;;5118584;28;20055;-65
2021/11/06 06:45:22;;;;;;;36.58;20.05;;;;;;;;;;5124716;28;20046;-64
2021/11/06 06:47:48;;;;;;;40.30;23.75;;;;;;;;;;5118482;28;20177;-65
2021/11/06 06:50:14;;;;;;;39.38;23.10;;;;;;;;;;5124494;28;20249;-65
2021/11/06 06:52:41;;;;;;;37.90;23.40;;;;;;;;;;5117818;28;20042;-65
2021/11/06 06:55:08;;;;;;;37.88;24.73;;;;;;;;;;5102833;28;20058;-65
2021/11/06 06:57:34;;;;;;;40.28;26.10;;;;;;;;;;5117925;28;20115;-65
2021/11/06 07:00:00;;;;;;;40.00;25.10;;;;;;;;;;5121375;28;20032;-65
2021/11/06 07:02:27;;;;;;;40.50;24.77;;;;;;;;;;5114787;28;20071;-64
2021/11/06 07:04:53;;;;;;;43.40;25.95;;;;;;;;;;5119475;28;20043;-64
2021/11/06 07:07:19;;;;;;;42.53;27.08;;;;;;;;;;5116626;28;20052;-65
2021/11/06 07:09:45;;;;;;;40.33;24.50;;;;;;;;;;5116439;28;20662;-65
2021/11/06 07:12:11;;;;;;;39.58;26.35;;;;;;;;;;5118374;28;20052;-65
2021/11/06 07:14:37;;;;;;;34.63;23.15;;;;;;;;;;5113960;28;20032;-65
2021/11/06 07:17:04;;;;;;;38.90;25.67;;;;;;;;;;5119608;28;20039;-65
2021/11/06 07:19:30;;;;;;;33.85;21.35;;;;;;;;;;5116537;28;20048;-64
2021/11/06 07:21:56;;;;;;;41.88;25.20;;;;;;;;;;5120586;28;20058;-64
2021/11/06 07:24:22;;;;;;;41.72;25.02;;;;;;;;;;5113071;28;20040;-64
2021/11/06 07:26:48;;;;;;;38.80;24.27;;;;;;;;;;5120059;28;20554;-64
2021/11/06 07:29:15;;;;;;;38.55;24.90;;;;;;;;;;5112231;28;20471;-64
2021/11/06 07:31:41;;;;;;;40.65;24.88;;;;;;;;;;5119281;28;20047;-64
2021/11/06 07:34:07;;;;;;;31.85;23.83;;;;;;;;;;5112537;28;20036;-64
2021/11/06 07:36:33;;;;;;;36.95;24.40;;;;;;;;;;5119119;28;20047;-64
2021/11/06 07:38:59;;;;;;;45.63;23.25;;;;;;;;;;5115954;28;20040;-64
2021/11/06 07:41:26;;;;;;;38.67;23.25;;;;;;;;;;5118113;28;20515;-64
2021/11/06 07:43:54;;;;;;;37.05;22.40;;;;;;;;;;5110974;28;20134;-65
2021/11/06 07:46:20;;;;;;;;;;;;;;;;;;5118614;28;20067;-64
2021/11/06 07:48:46;;;;;;;35.10;21.55;;;;;;;;;;5124255;28;19920;-64
2021/11/06 07:51:12;;;;;;;32.63;20.33;;;;;;;;;;5117304;28;20051;-64
2021/11/06 07:53:38;;;;;;;38.00;21.50;;;;;;;;;;5092356;28;20052;-64
2021/11/06 07:56:05;;;;;;;40.53;21.40;;;;;;;;;;5117520;28;20040;-64
2021/11/06 07:58:31;;;;;;;33.88;20.80;;;;;;;;;;5123679;28;20054;-64
2021/11/06 08:00:57;;;;;;;32.17;19.90;;;;;;;;;;5115656;28;20112;-65
2021/11/06 08:03:24;;;;;;;31.60;20.77;;;;;;;;;;5120868;28;20040;-65
2021/11/06 08:05:50;;;;;;;31.23;19.98;;;;;;;;;;5114364;28;20075;-66
2021/11/06 08:08:16;;;;;;;34.13;20.45;;;;;;;;;;5118293;28;20118;-64
2021/11/06 08:10:42;;;;;;;37.63;20.67;;;;;;;;;;5115588;28;20088;-64
2021/11/06 08:13:11;;;;;;;50.25;21.33;;;;;;;;;;5116733;28;20043;-64
2021/11/06 08:15:37;;;;;;;33.92;21.48;;;;;;;;;;5117131;28;20126;-65
2021/11/06 08:18:03;;;;;;;32.50;20.50;;;;;;;;;;5117398;28;20048;-64
2021/11/06 08:20:30;;;;;;;30.05;17.25;;;;;;;;;;5119002;28;20155;-64
2021/11/06 08:22:56;;;;;;;35.85;22.25;;;;;;;;;;5112962;28;20074;-64
2021/11/06 08:25:23;;;;;;;31.92;20.23;;;;;;;;;;5120229;28;20055;-64
2021/11/06 08:27:50;;;;;;;27.93;16.53;;;;;;;;;;5114836;28;20044;-65
2021/11/06 08:30:18;;;;;;;26.50;19.35;;;;;;;;;;5121661;28;20043;-64
2021/11/06 08:32:44;;;;;;;32.92;18.92;;;;;;;;;;5094687;28;20052;-64
2021/11/06 08:35:11;;;;;;;29.77;19.42;;;;;;;;;;5118986;28;20107;-65
2021/11/06 08:37:38;;;;;;;32.88;18.67;;;;;;;;;;5112486;28;20036;-65
2021/11/06 08:40:05;;;;;;;29.73;18.40;;;;;;;;;;5122799;28;20044;-65
2021/11/06 08:42:32;;;;;;;28.95;18.23;;;;;;;;;;5114216;28;20100;-65
2021/11/06 08:44:58;;;;;;;22.90;16.50;;;;;;;;;;5120539;28;20046;-65
2021/11/06 08:47:24;;;;;;;27.83;17.73;;;;;;;;;;5104154;28;20039;-65
2021/11/06 08:49:51;;;;;;;32.25;17.38;;;;;;;;;;5120805;28;20140;-65
2021/11/06 08:52:20;;;;;;;31.48;19.17;;;;;;;;;;5118032;28;20040;-65
2021/11/06 08:54:46;;;;;;;36.45;19.85;;;;;;;;;;5118457;28;20047;-65
2021/11/06 08:57:12;;;;;;;32.40;17.70;;;;;;;;;;5106026;28;20055;-66
2021/11/06 08:59:38;;;;;;;27.15;15.93;;;;;;;;;;5104063;28;20042;-65
2021/11/06 09:02:05;;;;;;;30.88;18.10;;;;;;;;;;5119864;28;20039;-64
2021/11/06 09:04:31;;;;;;;24.63;15.55;;;;;;;;;;5122988;28;20518;-65
2021/11/06 09:06:57;;;;;;;31.38;17.98;;;;;;;;;;5121990;28;20072;-65
2021/11/06 09:09:24;;;;;;;28.67;17.02;;;;;;;;;;5121080;28;20040;-65
2021/11/06 09:11:54;;;;;;;22.30;14.93;;;;;;;;;;5112417;28;20052;-65
2021/11/06 09:14:20;;;;;;;25.55;15.68;;;;;;;;;;5123996;28;20078;-65
2021/11/06 09:16:47;;;;;;;24.95;15.50;;;;;;;;;;5125513;28;20103;-65
2021/11/06 09:19:13;;;;;;;23.27;15.57;;;;;;;;;;5122452;28;20508;-65
2021/11/06 09:21:40;;;;;;;28.52;16.65;;;;;;;;;;5119358;28;20104;-65
2021/11/06 09:24:06;;;;;;;24.17;14.97;;;;;;;;;;5119781;28;20035;-66
2021/11/06 09:26:33;;;;;;;32.58;16.65;;;;;;;;;;5123141;28;20329;-66
2021/11/06 09:28:59;;;;;;;27.63;16.80;;;;;;;;;;5101919;28;20044;-66
2021/11/06 09:31:26;;;;;;;31.30;16.33;;;;;;;;;;5122562;28;20111;-66
2021/11/06 09:33:52;;;;;;;20.73;12.82;;;;;;;;;;5123711;28;20044;-66
2021/11/06 09:36:18;;;;;;;25.23;15.70;;;;;;;;;;5120668;28;20075;-65
2021/11/06 09:38:45;;;;;;;28.90;15.45;;;;;;;;;;5102854;28;20116;-66
2021/11/06 09:41:12;;;;;;;23.67;14.48;;;;;;;;;;5097373;28;20067;-66
2021/11/06 09:43:38;;;;;;;22.98;14.10;;;;;;;;;;5118261;28;20403;-66
2021/11/06 09:46:05;;;;;;;22.60;14.30;;;;;;;;;;5110725;28;20085;-66
2021/11/06 09:48:31;;;;;;;25.30;15.02;;;;;;;;;;5117146;28;20047;-64
2021/11/06 09:50:58;;;;;;;23.25;15.13;;;;;;;;;;5116921;28;20054;-66
2021/11/06 09:53:27;;;;;;;21.73;14.52;;;;;;;;;;5119099;28;20039;-64
2021/11/06 09:55:53;;;;;;;22.45;13.15;;;;;;;;;;5114785;28;20043;-64
2021/11/06 09:58:19;;;;;;;25.08;15.30;;;;;;;;;;5113852;28;20068;-64
2021/11/06 10:00:45;;;;;;;27.08;14.55;;;;;;;;;;5101742;28;20038;-65
2021/11/06 10:03:11;;;;;;;22.58;14.45;;;;;;;;;;5115072;28;20047;-65
2021/11/06 10:05:51;;;;;;;23.08;13.80;;;;;;;;;;5102541;28;20392;-64
2021/11/06 10:08:18;;;;;;;28.48;14.73;;;;;;;;;;5117011;28;20051;-65
2021/11/06 10:10:44;;;;;;;22.30;12.88;;;;;;;;;;5116478;28;20032;-65
2021/11/06 10:13:11;;;;;;;20.45;12.50;;;;;;;;;;5118730;28;20039;-65
2021/11/06 10:15:43;;;;;;;21.80;14.30;;;;;;;;;;5099589;28;20062;-64
2021/11/06 10:18:22;;;;;;;25.60;12.95;;;;;;;;;;5112418;28;20051;-65
2021/11/06 10:20:51;;;;;;;23.05;13.32;;;;;;;;;;5119486;28;20410;-65
2021/11/06 10:23:18;;;;;;;25.83;13.43;;;;;;;;;;5094159;28;20052;-65
2021/11/06 10:25:44;;;;;;;25.00;14.38;;;;;;;;;;5115397;28;20051;-64
2021/11/06 10:28:12;;;;;;;19.75;12.52;;;;;;;;;;5118246;28;20078;-64
2021/11/06 10:30:40;;;;;;;24.80;14.00;;;;;;;;;;5116870;28;20108;-65
2021/11/06 10:33:13;;;;;;;27.92;13.10;;;;;;;;;;5113881;28;20036;-65
2021/11/06 10:35:42;;;;;;;22.10;12.65;;;;;;;;;;5115787;28;20050;-65
2021/11/06 10:38:09;;;;;;;19.60;11.63;;;;;;;;;;5108291;28;20637;-65
2021/11/06 10:40:41;;;;;;;26.80;12.32;;;;;;;;;;5115984;28;20051;-65
2021/11/06 10:43:08;;;;;;;16.17;10.68;;;;;;;;;;5109641;28;20054;-65
2021/11/06 10:45:35;;;;;;;23.40;11.68;;;;;;;;;;5116574;28;20036;-65
2021/11/06 10:48:05;;;;;;;16.52;10.88;;;;;;;;;;5117086;28;20035;-65
2021/11/06 10:50:50;;;;;;;23.23;12.27;;;;;;;;;;5114143;28;20169;-65
2021/11/06 10:53:32;;;;;;;25.58;12.93;;;;;;;;;;5117058;28;20071;-65
2021/11/06 10:55:58;;;;;;;21.67;11.20;;;;;;;;;;5112868;28;20059;-65
2021/11/06 10:58:26;;;;;;;28.50;12.95;;;;;;;;;;5113296;28;20069;-65
2021/11/06 11:00:52;;;;;;;21.27;10.35;;;;;;;;;;5111174;28;20122;-65
2021/11/06 11:03:22;;;;;;;18.15;9.70;;;;;;;;;;5116687;28;20085;-65
2021/11/06 11:05:48;;;;;;;19.13;11.50;;;;;;;;;;5096509;28;20126;-64
2021/11/06 11:08:14;;;;;;;21.50;10.32;;;;;;;;;;5109253;28;20044;-65
2021/11/06 11:10:41;;;;;;;17.85;11.02;;;;;;;;;;5117173;28;20065;-65
2021/11/06 11:13:12;;;;;;;21.38;11.82;;;;;;;;;;5093193;28;20075;-66
2021/11/06 11:15:42;;;;;;;20.30;10.02;;;;;;;;;;5114865;28;20071;-63
2021/11/06 11:18:09;;;;;;;20.52;10.95;;;;;;;;;;5116961;28;20044;-63
2021/11/06 11:20:38;;;;;;;21.85;11.70;;;;;;;;;;5099470;28;20058;-62
2021/11/06 11:23:16;;;;;;;17.13;9.98;;;;;;;;;;5118762;28;20051;-63
2021/11/06 11:25:43;;;;;;;21.67;11.23;;;;;;;;;;5120109;28;20052;-63
2021/11/06 11:28:10;;;;;;;21.98;12.07;;;;;;;;;;5115861;28;21786;-65
2021/11/06 11:30:37;;;;;;;28.83;12.40;;;;;;;;;;5109601;28;20036;-65
2021/11/06 11:33:03;;;;;;;21.30;11.57;;;;;;;;;;5113633;28;20290;-65
2021/11/06 11:35:30;;;;;;;22.58;12.02;;;;;;;;;;5116902;28;20047;-66
2021/11/06 11:37:59;;;;;;;18.58;11.00;;;;;;;;;;5118646;28;20055;-66
2021/11/06 11:40:31;;;;;;;21.27;11.93;;;;;;;;;;5113362;28;21157;-65
2021/11/06 11:43:26;;;;;;;23.00;12.85;;;;;;;;;;5117203;28;20047;-67
2021/11/06 11:45:58;;;;;;;21.65;12.57;;;;;;;;;;5092966;28;20059;-67
2021/11/06 11:48:25;;;;;;;20.52;11.45;;;;;;;;;;5097422;28;20081;-64
2021/11/06 11:50:58;;;;;;;20.05;11.48;;;;;;;;;;5098999;28;20047;-68
2021/11/06 11:53:34;;;;;;;23.35;13.90;;;;;;;;;;5093530;28;20131;-61
2021/11/06 11:56:08;;;;;;;20.08;11.55;;;;;;;;;;5108782;28;20193;-70
2021/11/06 11:58:39;;;;;;;26.00;12.80;;;;;;;;;;5091748;28;20043;-64
2021/11/06 12:01:05;;;;;;;21.63;12.27;;;;;;;;;;5116566;28;20095;-69
2021/11/06 12:03:32;;;;;;;23.00;12.25;;;;;;;;;;5092100;28;20054;-66
2021/11/06 12:05:58;;;;;;;21.67;11.13;;;;;;;;;;5090463;28;20060;-67
2021/11/06 12:08:29;;;;;;;19.50;11.90;;;;;;;;;;5113511;28;20107;-64
2021/11/06 12:10:58;;;;;;;24.52;12.45;;;;;;;;;;5097141;28;20062;-66
2021/11/06 12:13:31;;;;;;;20.83;11.82;;;;;;;;;;5114247;28;20048;-65
2021/11/06 12:15:58;;;;;;;18.42;11.48;;;;;;;;;;5115169;28;20427;-66
2021/11/06 12:18:33;;;;;;;23.88;12.93;;;;;;;;;;5113794;28;20091;-66
2021/11/06 12:21:05;;;;;;;18.65;10.98;;;;;;;;;;5093747;28;20140;-67
2021/11/06 12:23:32;;;;;;;19.83;10.85;;;;;;;;;;5111879;28;20048;-67
2021/11/06 12:26:18;;;;;;;21.02;11.43;;;;;;;;;;5114816;28;20028;-66
2021/11/06 12:28:45;;;;;;;20.48;11.63;;;;;;;;;;5111579;28;20056;-67
2021/11/06 12:31:23;;;;;;;23.15;11.20;;;;;;;;;;5095327;28;20076;-67
2021/11/06 12:33:50;;;;;;;18.85;12.07;;;;;;;;;;5113737;28;20047;-68
2021/11/06 12:36:17;;;;;;;20.58;10.32;;;;;;;;;;5096767;28;20035;-64
2021/11/06 12:38:43;;;;;;;22.50;12.17;;;;;;;;;;5117119;28;20036;-64
2021/11/06 12:41:11;;;;;;;19.38;9.80;;;;;;;;;;5094524;28;20130;-65
2021/11/06 12:43:58;;;;;;;21.35;10.63;;;;;;;;;;5093563;28;20097;-66
2021/11/06 12:46:26;;;;;;;19.40;10.25;;;;;;;;;;5112039;28;20048;-66
2021/11/06 12:48:54;;;;;;;20.13;10.45;;;;;;;;;;5095371;28;20043;-63
2021/11/06 12:51:20;;;;;;;;;;;;;;;;;;5112062;28;20119;-63
2021/11/06 12:53:47;;;;;;;21.02;10.52;;;;;;;;;;5109129;28;19924;-64
2021/11/06 12:56:15;;;;;;;15.68;8.85;;;;;;;;;;5110509;28;20676;-64
2021/11/06 12:58:41;;;;;;;;;;;;;;;;;;5110307;28;20210;-64
2021/11/06 13:01:16;;;;;;;17.60;9.00;;;;;;;;;;5112266;28;19979;-64
2021/11/06 13:03:42;;;;;;;20.00;9.68;;;;;;;;;;5109811;28;20107;-63
2021/11/06 13:06:18;;;;;;;16.73;8.98;;;;;;;;;;5115148;28;20044;-64
2021/11/06 13:08:59;;;;;;;15.55;9.63;;;;;;;;;;5088740;28;20051;-63
2021/11/06 13:11:25;;;;;;;20.08;9.07;;;;;;;;;;5112437;28;20135;-63
2021/11/06 13:13:52;;;;;;;16.05;8.30;;;;;;;;;;5118231;28;20036;-63
2021/11/06 13:16:18;;;;;;;23.02;8.85;;;;;;;;;;5103697;28;20047;-63
2021/11/06 13:18:45;;;;;;;18.92;8.40;;;;;;;;;;5113740;28;20071;-63
2021/11/06 13:21:12;;;;;;;15.85;7.40;;;;;;;;;;5109463;28;20063;-63
2021/11/06 13:23:38;;;;;;;18.08;7.95;;;;;;;;;;5102962;28;20058;-63
2021/11/06 13:26:05;;;;;;;19.70;8.65;;;;;;;;;;5115302;28;20099;-63
2021/11/06 13:28:31;;;;;;;20.15;8.48;;;;;;;;;;5119558;28;20065;-63
2021/11/06 13:31:05;;;;;;;18.33;8.07;;;;;;;;;;5113082;28;20032;-63
2021/11/06 13:33:32;;;;;;;14.43;6.97;;;;;;;;;;5120946;28;20047;-63
2021/11/06 13:36:09;;;;;;;18.45;8.55;;;;;;;;;;5116340;28;20036;-63
2021/11/06 13:38:54;;;;;;;14.63;7.10;;;;;;;;;;5120607;28;20036;-63
2021/11/06 13:41:36;;;;;;;11.63;7.05;;;;;;;;;;5113601;28;20129;-63
2021/11/06 13:44:06;;;;;;;22.95;7.85;;;;;;;;;;5123828;28;20035;-62
2021/11/06 13:46:33;;;;;;;16.92;7.72;;;;;;;;;;5104377;28;20057;-63
2021/11/06 13:49:04;;;;;;;17.60;8.60;;;;;;;;;;5122362;28;20493;-63
2021/11/06 13:51:48;;;;;;;16.95;8.07;;;;;;;;;;5121793;28;20144;-63
2021/11/06 13:54:20;;;;;;;16.13;7.85;;;;;;;;;;5114267;28;20055;-63
2021/11/06 13:56:47;;;;;;;23.88;8.07;;;;;;;;;;5112002;28;20455;-63
2021/11/06 13:59:14;;;;;;;15.73;7.63;;;;;;;;;;5120965;28;20161;-63
2021/11/06 14:01:40;;;;;;;19.20;7.57;;;;;;;;;;5125920;28;20046;-63
2021/11/06 14:04:09;;;;;;;15.63;7.25;;;;;;;;;;5122825;28;20115;-63
2021/11/06 14:06:47;;;;;;;24.60;8.13;;;;;;;;;;5112547;28;20069;-63
2021/11/06 14:09:14;;;;;;;18.67;6.78;;;;;;;;;;5108343;28;20048;-63
2021/11/06 14:11:52;;;;;;;16.63;6.57;;;;;;;;;;5110500;28;20044;-63
2021/11/06 14:14:19;;;;;;;15.82;7.57;;;;;;;;;;5111244;28;20035;-63
2021/11/06 14:16:45;;;;;;;12.87;7.13;;;;;;;;;;5099308;28;20066;-63
2021/11/06 14:19:15;;;;;;;13.55;6.70;;;;;;;;;;5115330;28;20313;-62
2021/11/06 14:21:46;;;;;;;16.42;5.95;;;;;;;;;;5115266;28;20098;-63
2021/11/06 14:24:13;;;;;;;12.35;7.20;;;;;;;;;;5121078;28;20055;-62